Time;durP1;ratioP1;P1;durP2;ratioP2;P2;SDS_P1;SDS_P2;PMS_P1;PMS_P2;Temp;Humidity;BMP_temperature;BMP_pressure;BME280_temperature;BME280_humidity;BME280_pressure;Samples;Min_cycle;Max_cycle;Signal;HPM_P1;HPM_P2
2021/10/23 00:02:07;;;;;;;14.15;2.17;;;;;;;7.75;77.95;102617.94;5052381;28;20033;-76
2021/10/23 00:04:32;;;;;;;10.10;1.90;;;;;;;7.74;78.58;102616.19;5051745;28;20449;-77
2021/10/23 00:06:57;;;;;;;10.50;1.60;;;;;;;7.74;79.76;102610.91;5053560;28;20472;-76
2021/10/23 00:09:23;;;;;;;6.85;1.65;;;;;;;7.72;78.47;102618.09;5053585;28;20365;-76
2021/10/23 00:11:49;;;;;;;10.75;1.42;;;;;;;7.73;78.95;102619.78;5052237;28;20465;-76
2021/10/23 00:14:15;;;;;;;4.57;1.30;;;;;;;7.76;78.45;102615.19;5053378;28;20043;-76
2021/10/23 00:16:41;;;;;;;7.15;1.20;;;;;;;7.80;78.25;102613.25;5051757;28;20393;-77
2021/10/23 00:19:06;;;;;;;13.13;1.38;;;;;;;7.81;78.16;102622.91;5053483;28;20090;-77
2021/10/23 00:21:32;;;;;;;12.57;2.40;;;;;;;7.83;77.54;102612.22;5052779;28;20072;-77
2021/10/23 00:23:57;;;;;;;8.65;1.75;;;;;;;7.84;77.89;102616.59;5053206;28;20029;-77
2021/10/23 00:26:22;;;;;;;6.20;1.33;;;;;;;7.83;77.13;102615.72;5053127;28;20060;-77
2021/10/23 00:28:48;;;;;;;9.50;1.48;;;;;;;7.85;76.74;102623.59;5052275;28;20087;-77
2021/10/23 00:31:13;;;;;;;10.55;1.55;;;;;;;7.84;78.63;102624.56;5053179;28;20028;-77
2021/10/23 00:33:39;;;;;;;10.57;2.13;;;;;;;7.83;77.31;102617.53;5052403;28;20021;-77
2021/10/23 00:36:05;;;;;;;10.93;1.70;;;;;;;7.84;78.17;102620.09;5053006;28;20138;-77
2021/10/23 00:38:30;;;;;;;7.55;1.38;;;;;;;7.83;78.33;102614.88;5052530;28;20120;-77
2021/10/23 00:40:56;;;;;;;6.97;1.45;;;;;;;7.82;79.11;102618.47;5052702;28;20033;-77
2021/10/23 00:43:21;;;;;;;12.23;1.88;;;;;;;7.81;77.65;102614.97;5052901;28;20050;-77
2021/10/23 00:45:47;;;;;;;6.07;1.38;;;;;;;7.87;77.92;102611.16;5052255;28;20082;-77
2021/10/23 00:48:12;;;;;;;6.35;1.63;;;;;;;7.88;79.64;102608.41;5052815;28;20028;-77
2021/10/23 00:50:38;;;;;;;9.55;1.73;;;;;;;7.85;78.68;102608.59;5052365;28;20040;-78
2021/10/23 00:53:03;;;;;;;11.65;1.85;;;;;;;7.82;78.09;102605.22;5052715;28;20025;-77
2021/10/23 00:55:29;;;;;;;10.65;1.33;;;;;;;7.79;78.30;102608.88;5034916;28;20033;-77
2021/10/23 00:57:54;;;;;;;6.57;1.30;;;;;;;7.74;78.98;102610.91;5052178;28;20029;-77
2021/10/23 01:00:20;;;;;;;10.75;1.75;;;;;;;7.67;79.37;102612.13;5051487;28;20064;-77
2021/10/23 01:02:45;;;;;;;10.25;1.63;;;;;;;7.65;78.24;102616.66;5051984;28;20024;-77
2021/10/23 01:05:11;;;;;;;8.27;1.75;;;;;;;7.65;77.91;102614.88;5052660;28;20361;-77
2021/10/23 01:07:37;;;;;;;6.13;1.45;;;;;;;7.66;77.44;102619.25;5051621;28;20389;-76
2021/10/23 01:10:09;;;;;;;4.20;0.90;;;;;;;7.64;75.53;102622.91;5052720;28;20029;-77
2021/10/23 01:12:35;;;;;;;4.50;0.95;;;;;;;7.61;75.54;102626.53;5051791;28;20049;-78
2021/10/23 01:15:16;;;;;;;2.67;1.02;;;;;;;7.55;76.58;102626.84;5052408;28;20462;-77
2021/10/23 01:17:41;;;;;;;2.67;1.10;;;;;;;7.46;75.71;102624.66;5051892;28;20025;-77
2021/10/23 01:20:07;;;;;;;5.95;1.35;;;;;;;7.30;75.21;102614.81;5052147;28;20028;-77
2021/10/23 01:22:33;;;;;;;6.03;1.30;;;;;;;7.15;75.93;102608.47;5052153;28;20362;-77
2021/10/23 01:24:58;;;;;;;2.72;0.90;;;;;;;7.02;77.29;102608.19;5051514;28;20103;-77
2021/10/23 01:27:23;;;;;;;5.82;1.17;;;;;;;6.89;78.60;102612.34;5052813;28;20351;-76
2021/10/23 01:29:49;;;;;;;4.68;0.90;;;;;;;6.76;80.98;102617.34;5056177;28;20029;-76
2021/10/23 01:32:14;;;;;;;4.93;1.00;;;;;;;6.68;81.09;102617.69;5056120;28;20029;-77
2021/10/23 01:34:40;;;;;;;7.57;1.10;;;;;;;6.68;81.90;102617.69;5055618;28;20033;-80
2021/10/23 01:37:05;;;;;;;8.23;1.38;;;;;;;6.80;81.23;102610.97;5055059;28;20120;-76
2021/10/23 01:39:34;;;;;;;10.82;1.50;;;;;;;6.91;81.45;102615.75;5056030;28;20068;-76
2021/10/23 01:42:00;;;;;;;8.60;1.52;;;;;;;6.96;82.41;102613.78;5055805;28;20548;-76
2021/10/23 01:44:27;;;;;;;7.93;1.17;;;;;;;6.92;82.48;102606.06;5056201;28;20103;-76
2021/10/23 01:46:53;;;;;;;7.18;1.23;;;;;;;6.79;82.68;102611.06;5055514;28;20036;-76
2021/10/23 01:49:18;;;;;;;5.75;1.40;;;;;;;6.64;83.70;102615.25;5056178;28;20025;-76
2021/10/23 01:51:43;;;;;;;10.50;2.17;;;;;;;6.45;84.40;102612.59;5055632;28;20029;-76
2021/10/23 01:54:10;;;;;;;6.60;1.60;;;;;;;6.23;84.75;102613.53;5055884;28;20029;-76
2021/10/23 01:56:37;;;;;;;5.32;1.38;;;;;;;6.03;85.83;102608.25;5056116;28;20079;-76
2021/10/23 01:59:03;;;;;;;8.98;1.67;;;;;;;5.84;87.26;102595.81;5055950;28;20155;-76
2021/10/23 02:01:28;;;;;;;7.32;1.58;;;;;;;5.65;87.87;102607.13;5055639;28;20028;-76
2021/10/23 02:03:54;;;;;;;5.43;1.85;;;;;;;5.50;88.83;102610.44;5054962;28;20519;-76
2021/10/23 02:06:20;;;;;;;12.05;1.38;;;;;;;5.40;90.92;102614.34;5055954;28;20441;-76
2021/10/23 02:08:45;;;;;;;10.55;2.72;;;;;;;5.29;91.45;102613.00;5055469;28;20521;-76
2021/10/23 02:11:11;;;;;;;12.68;1.73;;;;;;;5.21;91.34;102608.94;5055565;28;20357;-76
2021/10/23 02:13:37;;;;;;;8.85;1.40;;;;;;;5.12;91.75;102607.56;5055750;28;20045;-76
2021/10/23 02:16:02;;;;;;;11.38;1.83;;;;;;;5.02;92.53;102607.03;5055128;28;20077;-76
2021/10/23 02:18:28;;;;;;;6.07;1.45;;;;;;;4.92;92.50;102610.97;5055672;28;20163;-76
2021/10/23 02:20:55;;;;;;;8.60;1.65;;;;;;;4.82;93.14;102618.38;5054665;28;20377;-76
2021/10/23 02:23:21;;;;;;;13.82;1.65;;;;;;;4.75;93.44;102619.53;5055535;28;20028;-76
2021/10/23 02:25:47;;;;;;;6.80;1.58;;;;;;;4.69;93.80;102619.75;5054838;28;20071;-76
2021/10/23 02:28:12;;;;;;;3.97;1.40;;;;;;;4.61;93.39;102613.88;5055189;28;20032;-76
2021/10/23 02:30:38;;;;;;;11.80;1.58;;;;;;;4.55;94.02;102617.59;5054089;28;20029;-76
2021/10/23 02:33:03;;;;;;;9.07;1.70;;;;;;;4.52;94.73;102617.72;5054675;28;20060;-76
2021/10/23 02:35:29;;;;;;;7.22;1.65;;;;;;;4.46;94.79;102617.94;5055528;28;20032;-76
2021/10/23 02:37:54;;;;;;;7.35;1.88;;;;;;;4.40;95.06;102617.28;5054657;28;20492;-76
2021/10/23 02:40:20;;;;;;;4.50;1.40;;;;;;;4.34;94.58;102619.25;5054345;28;20031;-76
2021/10/23 02:42:45;;;;;;;9.35;1.70;;;;;;;4.27;94.71;102610.72;5054237;28;20079;-77
2021/10/23 02:45:11;;;;;;;5.80;1.42;;;;;;;4.21;95.78;102609.16;5055123;28;20443;-76
2021/10/23 02:47:36;;;;;;;5.05;1.17;;;;;;;4.12;95.00;102606.84;5055150;28;20040;-76
2021/10/23 02:50:04;;;;;;;8.52;2.17;;;;;;;4.06;95.42;102609.66;5053388;28;20037;-77
2021/10/23 02:52:29;;;;;;;6.88;1.30;;;;;;;4.00;95.43;102612.53;5055000;28;20017;-77
2021/10/23 02:54:55;;;;;;;9.43;1.60;;;;;;;3.95;96.24;102617.09;5052679;28;20076;-77
2021/10/23 02:57:21;;;;;;;7.43;1.58;;;;;;;3.87;96.42;102612.09;5054921;28;20057;-77
2021/10/23 02:59:46;;;;;;;6.13;1.80;;;;;;;3.82;96.80;102614.91;5054014;28;20347;-77
2021/10/23 03:02:12;;;;;;;7.75;1.60;;;;;;;3.78;97.57;102620.31;5054818;28;20029;-77
2021/10/23 03:04:37;;;;;;;9.52;1.95;;;;;;;3.73;98.09;102617.81;5054868;28;20037;-76
2021/10/23 03:07:03;;;;;;;7.90;1.65;;;;;;;3.68;97.51;102619.75;5054063;28;20111;-76
2021/10/23 03:09:28;;;;;;;7.28;1.50;;;;;;;3.61;97.46;102619.06;5054875;28;20033;-77
2021/10/23 03:11:54;;;;;;;9.20;1.50;;;;;;;3.56;96.81;102622.78;5053351;28;20156;-77
2021/10/23 03:14:19;;;;;;;7.68;1.67;;;;;;;3.48;96.06;102629.16;5054678;28;20053;-76
2021/10/23 03:16:45;;;;;;;9.98;1.95;;;;;;;3.47;96.88;102630.06;5053328;28;20373;-76
2021/10/23 03:19:10;;;;;;;11.70;2.42;;;;;;;3.42;97.76;102632.00;5054120;28;20072;-76
2021/10/23 03:21:35;;;;;;;4.57;1.50;;;;;;;3.33;97.30;102635.78;5054440;28;20040;-76
2021/10/23 03:24:01;;;;;;;5.43;1.58;;;;;;;3.29;96.57;102636.78;5053778;28;20120;-76
2021/10/23 03:26:26;;;;;;;5.90;1.52;;;;;;;3.23;96.32;102636.13;5054397;28;20040;-76
2021/10/23 03:28:52;;;;;;;10.18;1.77;;;;;;;3.21;96.90;102641.44;5053789;28;20036;-76
2021/10/23 03:31:17;;;;;;;8.98;1.73;;;;;;;3.20;97.82;102644.09;5054364;28;20111;-76
2021/10/23 03:33:42;;;;;;;4.43;1.40;;;;;;;3.15;97.58;102642.47;5054444;28;20369;-76
2021/10/23 03:36:08;;;;;;;10.13;1.70;;;;;;;3.15;97.05;102644.22;5052690;28;20032;-76
2021/10/23 03:38:34;;;;;;;7.88;1.30;;;;;;;3.15;97.00;102638.94;5054105;28;20055;-76
2021/10/23 03:40:59;;;;;;;8.32;1.60;;;;;;;3.15;96.56;102641.59;5053453;28;20119;-75
2021/10/23 03:43:25;;;;;;;3.63;1.40;;;;;;;3.18;96.31;102644.16;5054024;28;20457;-76
2021/10/23 03:45:50;;;;;;;6.05;2.03;;;;;;;3.25;97.44;102653.56;5053412;28;20036;-77
2021/10/23 03:48:16;;;;;;;7.97;2.00;;;;;;;3.27;97.61;102656.13;5053909;28;20400;-76
2021/10/23 03:50:41;;;;;;;7.82;1.67;;;;;;;3.33;97.89;102661.22;5053417;28;20028;-76
2021/10/23 03:53:07;;;;;;;7.63;1.77;;;;;;;3.40;98.43;102654.00;5052589;28;20021;-76
2021/10/23 03:55:32;;;;;;;10.77;2.05;;;;;;;3.46;98.44;102659.06;5053765;28;20432;-76
2021/10/23 03:57:58;;;;;;;9.40;1.90;;;;;;;3.56;98.87;102663.13;5053330;28;20111;-77
2021/10/23 04:00:23;;;;;;;8.98;1.63;;;;;;;3.62;98.82;102662.94;5053734;28;20028;-76
2021/10/23 04:02:49;;;;;;;8.18;2.13;;;;;;;3.66;99.49;102668.97;5053758;28;20028;-76
2021/10/23 04:05:14;;;;;;;14.25;2.20;;;;;;;3.66;99.91;102658.44;5053102;28;20025;-76
2021/10/23 04:07:39;;;;;;;9.57;1.77;;;;;;;3.65;99.84;102662.81;5053603;28;20029;-75
2021/10/23 04:10:06;;;;;;;12.02;2.00;;;;;;;3.64;99.89;102661.13;5053042;28;20029;-75
2021/10/23 04:12:31;;;;;;;8.55;1.75;;;;;;;3.66;100.00;102664.56;5052668;28;20049;-76
2021/10/23 04:14:59;;;;;;;8.25;1.83;;;;;;;3.66;99.85;102667.19;5052847;28;20032;-76
2021/10/23 04:17:25;;;;;;;7.15;2.03;;;;;;;3.69;99.87;102663.59;5053312;28;20052;-76
2021/10/23 04:19:50;;;;;;;14.40;2.20;;;;;;;3.70;99.71;102660.94;5052058;28;20459;-76
2021/10/23 04:22:16;;;;;;;5.35;1.77;;;;;;;3.75;99.92;102655.50;5052963;28;20041;-76
2021/10/23 04:24:41;;;;;;;10.20;1.98;;;;;;;3.79;100.00;102651.88;5053182;28;20037;-78
2021/10/23 04:27:07;;;;;;;8.63;1.92;;;;;;;3.88;100.00;102650.66;5051396;28;20035;-77
2021/10/23 04:29:32;;;;;;;14.82;2.70;;;;;;;3.96;100.00;102656.56;5053214;28;20568;-77
2021/10/23 04:31:57;;;;;;;13.38;2.40;;;;;;;4.04;100.00;102653.66;5052464;28;20021;-76
2021/10/23 04:34:23;;;;;;;8.00;2.22;;;;;;;4.12;100.00;102651.63;5053083;28;20025;-76
2021/10/23 04:36:49;;;;;;;8.98;2.20;;;;;;;4.17;100.00;102649.69;5053049;28;20107;-76
2021/10/23 04:39:15;;;;;;;15.32;2.55;;;;;;;4.23;100.00;102656.53;5052611;28;20033;-76
2021/10/23 04:41:41;;;;;;;14.48;2.97;;;;;;;4.28;100.00;102665.13;5053298;28;20037;-76
2021/10/23 04:44:07;;;;;;;8.30;2.17;;;;;;;4.32;100.00;102666.75;5052202;28;20025;-76
2021/10/23 04:46:32;;;;;;;7.50;1.90;;;;;;;4.37;100.00;102659.56;5052904;28;20467;-76
2021/10/23 04:48:58;;;;;;;13.48;2.20;;;;;;;4.38;100.00;102666.53;5052241;28;20028;-76
2021/10/23 04:51:23;;;;;;;5.93;1.70;;;;;;;4.37;100.00;102669.22;5051200;28;20028;-76
2021/10/23 04:53:50;;;;;;;8.65;2.08;;;;;;;4.32;100.00;102663.25;5052756;28;20029;-76
2021/10/23 04:56:16;;;;;;;12.20;2.05;;;;;;;4.24;100.00;102668.81;5051780;28;20610;-76
2021/10/23 04:58:41;;;;;;;16.08;2.45;;;;;;;4.14;100.00;102668.25;5052643;28;20029;-76
2021/10/23 05:01:07;;;;;;;11.93;2.05;;;;;;;4.05;100.00;102672.03;5052153;28;20021;-76
2021/10/23 05:03:32;;;;;;;16.95;2.50;;;;;;;4.00;100.00;102678.38;5052227;28;20078;-76
2021/10/23 05:05:58;;;;;;;9.38;1.98;;;;;;;3.96;100.00;102672.38;5050824;28;20108;-77
2021/10/23 05:08:24;;;;;;;12.15;2.03;;;;;;;3.97;100.00;102681.13;5052595;28;20387;-76
2021/10/23 05:10:50;;;;;;;7.90;2.10;;;;;;;4.01;100.00;102677.47;5052179;28;20055;-75
2021/10/23 05:13:17;;;;;;;9.95;2.33;;;;;;;4.08;100.00;102673.72;5051770;28;20073;-76
2021/10/23 05:15:42;;;;;;;10.13;2.35;;;;;;;4.16;100.00;102684.00;5052478;28;20087;-76
2021/10/23 05:18:08;;;;;;;12.75;2.67;;;;;;;4.20;100.00;102683.84;5051853;28;20041;-76
2021/10/23 05:20:33;;;;;;;17.10;2.50;;;;;;;4.22;100.00;102689.06;5051215;28;20032;-76
2021/10/23 05:22:59;;;;;;;9.68;2.30;;;;;;;4.19;100.00;102691.78;5051731;28;20032;-76
2021/10/23 05:25:24;;;;;;;13.65;2.50;;;;;;;4.18;100.00;102687.44;5052326;28;20029;-75
2021/10/23 05:27:49;;;;;;;9.57;2.15;;;;;;;4.19;100.00;102697.91;5052359;28;20056;-76
2021/10/23 05:30:15;;;;;;;10.95;2.92;;;;;;;4.19;100.00;102697.06;5051731;28;20078;-75
2021/10/23 05:32:40;;;;;;;13.25;2.70;;;;;;;4.22;100.00;102692.56;5052326;28;20029;-77
2021/10/23 05:35:07;;;;;;;9.35;2.25;;;;;;;4.25;100.00;102699.50;5051735;28;20511;-77
2021/10/23 05:37:32;;;;;;;14.25;3.10;;;;;;;4.27;100.00;102708.22;5052246;28;20384;-77
2021/10/23 05:39:57;;;;;;;15.20;2.88;;;;;;;4.32;100.00;102695.72;5052327;28;20029;-77
2021/10/23 05:42:23;;;;;;;14.02;2.40;;;;;;;4.35;100.00;102697.41;5051205;28;20029;-76
2021/10/23 05:44:49;;;;;;;6.63;2.33;;;;;;;4.37;100.00;102693.81;5052596;28;20036;-76
2021/10/23 05:47:15;;;;;;;14.15;2.80;;;;;;;4.38;100.00;102695.53;5051462;28;20040;-76
2021/10/23 05:49:40;;;;;;;12.80;2.70;;;;;;;4.39;100.00;102701.66;5052198;28;20017;-76
2021/10/23 05:52:06;;;;;;;9.25;2.22;;;;;;;4.39;100.00;102706.94;5051395;28;20495;-76
2021/10/23 05:54:40;;;;;;;12.10;2.30;;;;;;;4.42;100.00;102704.19;5052418;28;20033;-76
2021/10/23 05:57:07;;;;;;;12.57;2.83;;;;;;;4.46;100.00;102716.34;5051313;28;20021;-76
2021/10/23 05:59:33;;;;;;;12.25;3.22;;;;;;;4.50;100.00;102717.94;5052104;28;20044;-76
2021/10/23 06:02:10;;;;;;;10.65;2.92;;;;;;;4.55;100.00;102723.94;5052115;28;20052;-76
2021/10/23 06:04:36;;;;;;;21.38;3.17;;;;;;;4.62;100.00;102723.72;5051961;28;20037;-76
2021/10/23 06:07:04;;;;;;;10.55;3.00;;;;;;;4.66;100.00;102720.91;5052063;28;20375;-76
2021/10/23 06:09:30;;;;;;;11.43;3.10;;;;;;;4.72;100.00;102735.66;5051982;28;20103;-76
2021/10/23 06:12:00;;;;;;;14.82;3.65;;;;;;;4.76;100.00;102737.25;5051333;28;20033;-77
2021/10/23 06:14:25;;;;;;;22.30;4.65;;;;;;;4.79;100.00;102729.22;5051722;28;20512;-77
2021/10/23 06:16:50;;;;;;;17.55;4.40;;;;;;;4.83;100.00;102733.50;5055389;28;20052;-76
2021/10/23 06:19:16;;;;;;;25.23;3.92;;;;;;;4.90;100.00;102735.00;5054828;28;20484;-76
2021/10/23 06:21:41;;;;;;;15.55;3.42;;;;;;;4.99;100.00;102741.72;5055583;28;20429;-76
2021/10/23 06:24:06;;;;;;;24.95;12.93;;;;;;;5.04;100.00;102747.69;5055047;28;20068;-77
2021/10/23 06:26:32;;;;;;;21.90;7.13;;;;;;;5.11;100.00;102754.44;5055349;28;20107;-77
2021/10/23 06:28:57;;;;;;;22.30;5.60;;;;;;;5.17;100.00;102752.53;5055276;28;20028;-77
2021/10/23 06:31:22;;;;;;;17.83;4.63;;;;;;;5.23;100.00;102747.00;5055027;28;20025;-76
2021/10/23 06:33:48;;;;;;;18.33;4.05;;;;;;;5.29;100.00;102746.78;5055459;28;20048;-77
2021/10/23 06:36:13;;;;;;;13.20;3.65;;;;;;;5.35;100.00;102753.59;5037031;28;20025;-77
2021/10/23 06:38:39;;;;;;;16.75;3.70;;;;;;;5.40;100.00;102755.13;5055212;28;20036;-77
2021/10/23 06:41:04;;;;;;;19.17;5.20;;;;;;;5.48;100.00;102757.50;5053802;28;20361;-76
2021/10/23 06:43:29;;;;;;;16.45;3.30;;;;;;;5.56;100.00;102759.84;5054620;28;20060;-76
2021/10/23 06:45:55;;;;;;;16.35;3.75;;;;;;;5.64;100.00;102765.66;5055085;28;20033;-76
2021/10/23 06:48:20;;;;;;;13.50;3.60;;;;;;;5.72;100.00;102763.59;5054782;28;20107;-76
2021/10/23 06:50:46;;;;;;;31.42;4.85;;;;;;;5.80;100.00;102758.84;5054775;28;20125;-77
2021/10/23 06:53:11;;;;;;;10.77;3.70;;;;;;;5.86;100.00;102752.47;5054464;28;20091;-77
2021/10/23 06:55:36;;;;;;;16.25;4.40;;;;;;;5.94;100.00;102760.97;5054927;28;20039;-77
2021/10/23 06:58:02;;;;;;;18.08;3.95;;;;;;;6.02;100.00;102759.81;5054922;28;20031;-77
2021/10/23 07:00:27;;;;;;;15.05;4.43;;;;;;;6.11;100.00;102756.81;5054273;28;20436;-78
2021/10/23 07:02:52;;;;;;;18.88;4.20;;;;;;;6.23;100.00;102766.03;5036936;28;20053;-78
2021/10/23 07:05:20;;;;;;;11.90;3.60;;;;;;;6.33;100.00;102776.16;5054092;28;20025;-78
2021/10/23 07:07:46;;;;;;;12.45;4.78;;;;;;;6.44;100.00;102770.41;5054465;28;20021;-79
2021/10/23 07:10:12;;;;;;;16.73;3.85;;;;;;;6.58;100.00;102777.72;5053955;28;20086;-80
2021/10/23 07:12:38;;;;;;;11.13;3.90;;;;;;;6.68;100.00;102783.50;5054400;28;20056;-80
2021/10/23 07:15:05;;;;;;;15.30;4.00;;;;;;;6.76;100.00;102769.94;5054623;28;20017;-79
2021/10/23 07:17:31;;;;;;;16.73;4.30;;;;;;;6.82;100.00;102775.84;5053706;28;20674;-79
2021/10/23 07:19:56;;;;;;;10.95;4.00;;;;;;;6.89;100.00;102784.34;5054577;28;20033;-79
2021/10/23 07:22:23;;;;;;;12.65;4.05;;;;;;;6.95;100.00;102784.06;5053792;28;20037;-79
2021/10/23 07:24:48;;;;;;;12.50;4.15;;;;;;;7.04;100.00;102791.59;5054366;28;20021;-73
2021/10/23 07:27:14;;;;;;;15.95;4.78;;;;;;;7.10;100.00;102795.78;5053437;28;20036;-76
2021/10/23 07:29:39;;;;;;;17.17;3.90;;;;;;;7.17;100.00;102791.06;5054346;28;20063;-77
2021/10/23 07:32:05;;;;;;;14.80;4.65;;;;;;;7.28;100.00;102801.16;5054385;28;20070;-74
2021/10/23 07:34:30;;;;;;;11.25;3.90;;;;;;;7.36;100.00;102805.19;5053380;28;20060;-75
2021/10/23 07:36:56;;;;;;;14.07;4.72;;;;;;;7.41;100.00;102799.69;5050627;28;20029;-77
2021/10/23 07:39:21;;;;;;;16.27;4.30;;;;;;;7.48;100.00;102805.53;5050911;28;20025;-76
2021/10/23 07:41:47;;;;;;;15.25;4.72;;;;;;;7.54;100.00;102803.47;5051240;28;20040;-78
2021/10/23 07:44:13;;;;;;;8.35;3.75;;;;;;;7.61;100.00;102809.34;5051302;28;20063;-80
2021/10/23 07:46:39;;;;;;;14.82;4.75;;;;;;;7.68;99.92;102815.22;5049498;28;20033;-80
2021/10/23 07:49:06;;;;;;;13.63;4.68;;;;;;;7.76;99.74;102815.72;5051009;28;20025;-80
2021/10/23 07:51:33;;;;;;;10.25;4.97;;;;;;;7.85;99.55;102814.41;5050752;28;20457;-79
2021/10/23 07:53:58;;;;;;;11.27;4.93;;;;;;;7.93;99.13;102818.44;5051331;28;20029;-80
2021/10/23 07:56:24;;;;;;;18.20;5.70;;;;;;;8.03;98.79;102823.28;5050761;28;20070;-79
2021/10/23 07:58:49;;;;;;;14.43;5.00;;;;;;;8.10;97.82;102822.06;5051024;28;20120;-80
2021/10/23 08:01:15;;;;;;;14.30;5.10;;;;;;;8.15;97.10;102824.47;5050824;28;20044;-78
2021/10/23 08:03:40;;;;;;;12.07;5.50;;;;;;;8.20;96.92;102827.78;5051007;28;20111;-79
2021/10/23 08:06:06;;;;;;;13.10;5.78;;;;;;;8.24;96.90;102829.34;5051160;28;20083;-79
2021/10/23 08:08:31;;;;;;;17.10;5.20;;;;;;;8.26;96.78;102830.13;5050344;28;20033;-80
2021/10/23 08:10:59;;;;;;;14.88;6.13;;;;;;;8.26;96.67;102820.38;5050586;28;20026;-79
2021/10/23 08:13:24;;;;;;;12.18;5.90;;;;;;;8.26;96.63;102825.69;5049699;28;20073;-79
2021/10/23 08:15:49;;;;;;;14.20;6.50;;;;;;;8.26;96.69;102833.63;5049295;28;20086;-78
2021/10/23 08:18:16;;;;;;;18.45;6.50;;;;;;;8.33;96.34;102842.16;5050621;28;20021;-76
2021/10/23 08:20:42;;;;;;;11.85;5.78;;;;;;;8.35;95.60;102834.97;5047416;28;20020;-77
2021/10/23 08:23:08;;;;;;;15.50;6.20;;;;;;;8.37;95.51;102830.44;5047126;28;20072;-77
2021/10/23 08:25:36;;;;;;;17.83;6.40;;;;;;;8.43;95.55;102839.91;5052317;28;20107;-77
2021/10/23 08:28:03;;;;;;;12.35;6.18;;;;;;;8.43;94.93;102835.47;5053094;28;20047;-80
2021/10/23 08:30:28;;;;;;;11.90;6.00;;;;;;;8.51;94.62;102845.72;5052425;28;20365;-83
2021/10/23 08:32:54;;;;;;;12.48;6.38;;;;;;;8.56;94.48;102845.50;5052756;28;20025;-81
2021/10/23 08:35:20;;;;;;;16.02;6.10;;;;;;;8.63;94.69;102846.91;5052808;28;20049;-82
2021/10/23 08:37:46;;;;;;;12.60;6.10;;;;;;;8.68;94.09;102852.00;5052545;28;20517;-80
2021/10/23 08:40:13;;;;;;;12.75;5.35;;;;;;;8.73;93.39;102853.47;5053024;28;20025;-82
2021/10/23 08:42:39;;;;;;;11.65;5.93;;;;;;;8.75;92.63;102853.41;5052455;28;20037;-83
2021/10/23 08:45:07;;;;;;;9.73;5.30;;;;;;;8.73;92.06;102848.19;5053181;28;20039;-83
2021/10/23 08:47:36;;;;;;;15.15;6.72;;;;;;;8.76;92.39;102857.75;5052374;28;20128;-80
2021/10/23 08:50:06;;;;;;;12.35;5.40;;;;;;;8.76;92.48;102857.75;5052943;28;20033;-82
2021/10/23 08:52:32;;;;;;;11.80;6.63;;;;;;;8.77;92.49;102854.16;5050904;28;20516;-84
2021/10/23 08:55:20;;;;;;;16.10;6.00;;;;;;;8.79;92.36;102858.47;5051572;28;20020;-83
2021/10/23 08:57:46;;;;;;;15.90;5.85;;;;;;;8.81;92.11;102861.03;5050813;28;20048;-82
2021/10/23 09:00:35;;;;;;;11.77;5.57;;;;;;;8.85;92.35;102864.41;5052803;28;20125;-86
2021/10/23 09:03:00;;;;;;;9.95;5.45;;;;;;;8.85;92.01;102865.25;5052559;28;20465;-82
2021/10/23 09:05:26;;;;;;;7.95;5.20;;;;;;;8.90;90.76;102865.03;5050711;28;20032;-82
2021/10/23 09:07:52;;;;;;;10.13;5.28;;;;;;;8.94;90.31;102863.91;5051277;28;20021;-82
2021/10/23 09:10:26;;;;;;;10.77;5.07;;;;;;;8.96;90.35;102857.59;5051130;28;20040;-83
2021/10/23 09:13:03;;;;;;;10.85;5.45;;;;;;;8.98;90.21;102858.38;5051225;28;20049;-82
2021/10/23 09:15:39;;;;;;;10.07;4.97;;;;;;;9.00;89.97;102855.63;5052272;28;20432;-83
2021/10/23 09:18:09;;;;;;;14.63;5.25;;;;;;;9.04;90.08;102859.00;5052800;28;20055;-84
2021/10/23 09:20:42;;;;;;;8.85;4.47;;;;;;;9.05;90.51;102860.72;5051697;28;20108;-84
2021/10/23 09:23:17;;;;;;;10.52;4.55;;;;;;;9.05;90.41;102863.38;5052479;28;20021;-83
2021/10/23 09:25:42;;;;;;;9.48;4.28;;;;;;;9.07;89.96;102867.66;5051856;28;20112;-83
2021/10/23 09:28:16;;;;;;;7.50;4.40;;;;;;;9.10;89.90;102862.19;5052010;28;20518;-84
2021/10/23 09:30:44;;;;;;;11.52;4.72;;;;;;;9.18;89.50;102860.00;5050793;28;20029;-83
2021/10/23 09:33:16;;;;;;;12.02;4.47;;;;;;;9.30;87.95;102868.25;5050587;28;20025;-82
2021/10/23 09:35:44;;;;;;;14.15;5.20;;;;;;;9.42;88.75;102866.72;5029101;28;20567;-84
2021/10/23 09:38:11;;;;;;;12.18;5.15;;;;;;;9.54;87.95;102871.41;5029613;28;20045;-80
2021/10/23 09:40:38;;;;;;;10.95;5.35;;;;;;;9.66;87.91;102861.91;5028695;28;20040;-83
2021/10/23 09:43:19;;;;;;;10.82;5.40;;;;;;;9.74;87.10;102864.16;5029416;28;20059;-83
2021/10/23 09:46:13;;;;;;;13.70;5.40;;;;;;;9.76;86.29;102864.91;5029051;28;20034;-83
2021/10/23 09:48:40;;;;;;;12.52;5.20;;;;;;;9.82;85.35;102868.09;5029873;28;20355;-78
2021/10/23 09:51:26;;;;;;;12.10;5.35;;;;;;;9.88;85.96;102866.88;5033531;28;20018;-78
2021/10/23 09:53:57;;;;;;;11.20;5.72;;;;;;;9.88;85.80;102873.09;5032449;28;20343;-78
2021/10/23 09:56:25;;;;;;;9.20;4.60;;;;;;;9.89;84.85;102872.13;5033492;28;20056;-79
2021/10/23 09:59:04;;;;;;;9.07;4.60;;;;;;;9.93;85.14;102874.59;5032608;28;20037;-78
2021/10/23 10:01:35;;;;;;;9.15;5.10;;;;;;;9.93;84.53;102879.94;5032971;28;20083;-80
2021/10/23 10:04:05;;;;;;;12.77;4.88;;;;;;;9.91;84.55;102885.31;5033251;28;20052;-78
2021/10/23 10:06:38;;;;;;;13.50;4.28;;;;;;;9.88;85.77;102878.41;5032658;28;20068;-79
2021/10/23 10:09:05;;;;;;;8.80;4.43;;;;;;;9.86;84.50;102874.94;5032825;28;20466;-76
2021/10/23 10:11:32;;;;;;;15.70;7.00;;;;;;;9.88;84.81;102877.53;5032131;28;20033;-79
2021/10/23 10:13:58;;;;;;;13.10;7.22;;;;;;;9.91;85.39;102879.16;5032935;28;20373;-78
2021/10/23 10:16:26;;;;;;;9.15;4.80;;;;;;;9.94;85.51;102884.31;5032901;28;20048;-78
2021/10/23 10:18:52;;;;;;;13.02;4.28;;;;;;;9.99;85.40;102884.94;5032392;28;20040;-77
2021/10/23 10:21:19;;;;;;;12.05;3.63;;;;;;;10.01;85.02;102883.03;5032607;28;20060;-77
2021/10/23 10:23:45;;;;;;;8.50;3.90;;;;;;;10.04;84.71;102894.34;5032087;28;20385;-78
2021/10/23 10:26:14;;;;;;;8.43;4.30;;;;;;;10.04;84.73;102886.38;5042847;28;20029;-78
2021/10/23 10:29:12;;;;;;;9.40;4.28;;;;;;;10.05;83.82;102890.75;5049310;28;20068;-80
2021/10/23 10:31:55;;;;;;;8.07;3.88;;;;;;;10.08;84.61;102897.72;5049070;28;20028;-76
2021/10/23 10:35:28;;;;;;;7.75;3.95;;;;;;;10.09;85.64;102890.56;5046015;28;20021;-79
2021/10/23 10:43:04;;;;;;;11.35;3.95;;;;;;;10.24;85.23;102892.41;5032470;28;20410;-79
2021/10/23 10:45:47;;;;;;;9.30;3.97;;;;;;;10.29;84.10;102889.47;5048619;28;20100;-80
2021/10/23 10:48:15;;;;;;;8.40;4.50;;;;;;;10.30;84.05;102891.16;5050771;28;20020;-80
2021/10/23 10:50:45;;;;;;;10.65;4.25;;;;;;;10.28;83.99;102888.59;5054347;28;20074;-80
2021/10/23 10:53:18;;;;;;;11.40;4.32;;;;;;;10.26;84.39;102889.66;5054870;28;20100;-78
2021/10/23 10:55:49;;;;;;;8.43;4.65;;;;;;;10.23;82.44;102885.34;5054285;28;20024;-79
2021/10/23 10:58:16;;;;;;;9.98;5.05;;;;;;;10.26;83.32;102890.50;5055043;28;20031;-79
2021/10/23 11:00:52;;;;;;;11.20;4.80;;;;;;;10.25;83.22;102894.09;5053992;28;20025;-81
2021/10/23 11:03:37;;;;;;;9.07;5.72;;;;;;;10.26;83.93;102897.63;5042038;28;20056;-84
2021/10/23 11:06:30;;;;;;;7.25;4.90;;;;;;;10.27;85.57;102891.34;5050047;28;20025;-81
2021/10/23 11:09:10;;;;;;;8.93;5.18;;;;;;;10.30;84.94;102888.50;5048496;28;20033;-83
2021/10/23 11:11:45;;;;;;;10.45;5.07;;;;;;;10.35;84.30;102881.16;5054471;28;20080;-86
2021/10/23 11:14:28;;;;;;;11.80;5.55;;;;;;;10.39;84.61;102882.72;5053219;28;20049;-84
2021/10/23 11:16:54;;;;;;;9.88;5.55;;;;;;;10.43;83.78;102880.72;5053654;28;20055;-84
2021/10/23 11:19:23;;;;;;;8.85;4.97;;;;;;;10.45;83.63;102881.47;5054862;28;20462;-88
2021/10/23 11:21:54;;;;;;;11.57;5.32;;;;;;;10.48;84.35;102878.63;5054021;28;20473;-85
2021/10/23 11:24:21;;;;;;;14.05;5.53;;;;;;;10.50;83.69;102877.63;5054387;28;20116;-88
2021/10/23 11:26:50;;;;;;;7.25;4.93;;;;;;;10.53;84.05;102868.59;5053113;28;20215;-81
2021/10/23 11:29:28;;;;;;;10.77;5.25;;;;;;;10.51;83.15;102876.69;5054278;28;20037;-77
2021/10/23 11:31:58;;;;;;;11.02;6.28;;;;;;;10.53;83.04;102873.94;5053389;28;20541;-76